createdAt,value
2023-05-18T00:01:44.973Z,2.10
2023-05-18T00:04:12.839Z,2.10
2023-05-18T00:06:41.486Z,2.10
2023-05-18T00:09:09.509Z,2.10
2023-05-18T00:11:39.648Z,2.10
2023-05-18T00:14:08.931Z,2.20
2023-05-18T00:16:36.834Z,2.20
2023-05-18T00:19:05.174Z,2.10
2023-05-18T00:21:33.570Z,2.10
2023-05-18T00:24:01.649Z,2.10
2023-05-18T00:26:29.608Z,2.00
2023-05-18T00:28:57.465Z,1.90
2023-05-18T00:31:26.861Z,2.00
2023-05-18T00:33:54.764Z,2.00
2023-05-18T00:36:22.619Z,2.00
2023-05-18T00:38:50.462Z,2.00
2023-05-18T00:41:18.319Z,2.00
2023-05-18T00:43:46.207Z,1.90
2023-05-18T00:46:14.179Z,1.90
2023-05-18T00:48:43.857Z,1.80
2023-05-18T00:51:12.304Z,1.90
2023-05-18T00:53:41.577Z,1.80
2023-05-18T00:56:12.195Z,1.70
2023-05-18T00:58:41.137Z,1.70
2023-05-18T01:01:09.653Z,1.60
2023-05-18T01:03:39.077Z,1.60
2023-05-18T01:06:10.454Z,1.60
2023-05-18T01:08:38.936Z,1.60
2023-05-18T01:11:12.817Z,1.50
2023-05-18T01:13:48.903Z,1.70
2023-05-18T01:16:24.227Z,1.60
2023-05-18T01:19:00.974Z,1.50
2023-05-18T01:21:46.329Z,1.40
2023-05-18T01:24:27.171Z,1.40
2023-05-18T01:26:59.416Z,1.30
2023-05-18T01:29:28.588Z,1.20
2023-05-18T01:31:56.612Z,1.20
2023-05-18T01:34:24.541Z,1.20
2023-05-18T01:36:52.481Z,1.20
2023-05-18T01:39:20.738Z,1.20
2023-05-18T01:41:56.267Z,1.20
2023-05-18T01:44:30.046Z,1.20
2023-05-18T01:47:03.074Z,1.20
2023-05-18T01:49:36.655Z,1.30
2023-05-18T01:52:07.879Z,1.30
2023-05-18T01:54:38.400Z,1.30
2023-05-18T01:57:09.543Z,1.30
2023-05-18T01:59:39.599Z,1.10
2023-05-18T02:02:07.536Z,1.00
2023-05-18T02:04:36.173Z,1.00
2023-05-18T02:10:52.226Z,1.10
2023-05-18T02:13:20.058Z,1.00
2023-05-18T02:15:49.298Z,1.00
2023-05-18T02:18:17.412Z,1.10
2023-05-18T02:20:49.011Z,1.10
2023-05-18T02:23:17.738Z,1.10
2023-05-18T02:25:46.718Z,1.00
2023-05-18T02:28:14.509Z,1.00
2023-05-18T02:30:42.362Z,1.00
2023-05-18T02:33:11.546Z,1.00
2023-05-18T02:35:40.930Z,1.00
2023-05-18T02:38:08.753Z,0.90
2023-05-18T02:40:36.655Z,0.80
2023-05-18T02:43:04.446Z,0.80
2023-05-18T02:45:32.543Z,0.90
2023-05-18T02:48:00.644Z,0.90
2023-05-18T02:50:30.055Z,1.00
2023-05-18T02:52:58.009Z,1.00
2023-05-18T02:55:25.904Z,1.00
2023-05-18T02:57:56.987Z,0.90
2023-05-18T03:00:25.029Z,1.00
2023-05-18T03:02:53.812Z,1.10
2023-05-18T03:05:23.785Z,1.20
2023-05-18T03:07:54.296Z,1.20
2023-05-18T03:10:22.432Z,1.10
2023-05-18T03:12:50.551Z,1.10
2023-05-18T03:15:19.538Z,0.90
2023-05-18T03:17:47.572Z,0.90
2023-05-18T03:20:15.659Z,1.00
2023-05-18T03:22:43.638Z,1.10
2023-05-18T03:25:12.794Z,0.90
2023-05-18T03:27:40.616Z,0.80
2023-05-18T03:30:09.854Z,0.90
2023-05-18T03:32:38.060Z,1.10
2023-05-18T03:35:06.567Z,1.20
2023-05-18T03:37:34.785Z,1.20
2023-05-18T03:40:12.918Z,1.00
2023-05-18T03:42:42.048Z,0.80
2023-05-18T03:45:10.548Z,0.60
2023-05-18T03:47:38.980Z,0.60
2023-05-18T03:50:08.089Z,0.50
2023-05-18T03:52:37.049Z,0.50
2023-05-18T03:55:06.541Z,0.70
2023-05-18T03:57:35.775Z,0.70
2023-05-18T04:00:13.519Z,0.70
2023-05-18T04:02:42.246Z,0.90
2023-05-18T04:05:10.685Z,1.00
2023-05-18T04:07:43.955Z,1.10
2023-05-18T04:10:12.550Z,1.60
2023-05-18T04:12:41.966Z,1.90
2023-05-18T04:15:10.496Z,2.30
2023-05-18T04:17:39.746Z,2.70
2023-05-18T04:20:12.997Z,2.80
2023-05-18T04:22:46.205Z,2.90
2023-05-18T04:25:14.326Z,2.90
2023-05-18T04:27:45.463Z,2.80
2023-05-18T04:30:14.515Z,2.80
2023-05-18T04:32:43.734Z,2.80
2023-05-18T04:35:12.538Z,3.00
2023-05-18T04:37:41.362Z,3.40
2023-05-18T04:40:13.514Z,4.00
2023-05-18T04:42:45.524Z,4.40
2023-05-18T04:45:15.741Z,4.30
2023-05-18T04:47:46.342Z,4.40
2023-05-18T04:50:16.054Z,4.60
2023-05-18T04:52:47.960Z,4.80
2023-05-18T04:55:19.983Z,4.80
2023-05-18T04:57:49.149Z,4.50
2023-05-18T05:00:18.076Z,4.50
2023-05-18T05:02:46.363Z,4.70
2023-05-18T05:05:14.278Z,4.90
2023-05-18T05:07:42.113Z,5.20
2023-05-18T05:10:10.955Z,5.50
2023-05-18T05:12:49.236Z,5.80
2023-05-18T05:15:18.865Z,5.90
2023-05-18T05:17:48.008Z,6.10
2023-05-18T05:20:16.129Z,5.90
2023-05-18T05:22:43.993Z,5.90
2023-05-18T05:25:12.328Z,5.90
2023-05-18T05:27:42.240Z,6.00
2023-05-18T05:30:11.201Z,6.20
2023-05-18T05:32:40.425Z,6.50
2023-05-18T05:35:08.660Z,6.80
2023-05-18T05:37:36.575Z,6.60
2023-05-18T05:40:06.388Z,6.90
2023-05-18T05:42:34.729Z,7.60
2023-05-18T05:45:02.717Z,7.30
2023-05-18T05:47:30.610Z,7.70
2023-05-18T05:49:59.786Z,7.70
2023-05-18T05:52:28.795Z,7.60
2023-05-18T05:54:56.776Z,7.70
2023-05-18T05:57:24.585Z,7.80
2023-05-18T05:59:52.441Z,7.90
2023-05-18T06:02:20.576Z,7.70
2023-05-18T06:04:48.442Z,7.60
2023-05-18T06:07:18.046Z,7.90
2023-05-18T06:09:45.912Z,8.10
2023-05-18T06:12:13.741Z,8.00
2023-05-18T06:14:41.582Z,7.70
2023-05-18T06:17:09.378Z,7.70
2023-05-18T06:19:37.167Z,7.70
2023-05-18T06:22:05.292Z,7.80
2023-05-18T06:24:34.600Z,8.10
2023-05-18T06:27:02.438Z,7.90
2023-05-18T06:29:30.634Z,7.80
2023-05-18T06:31:58.747Z,7.80
2023-05-18T06:34:26.764Z,7.40
2023-05-18T06:36:54.605Z,7.90
2023-05-18T06:39:22.486Z,8.10
2023-05-18T06:41:52.504Z,7.80
2023-05-18T06:44:20.361Z,7.90
2023-05-18T06:46:48.967Z,8.30
2023-05-18T06:49:16.808Z,8.50
2023-05-18T06:51:45.743Z,8.80
2023-05-18T06:54:14.125Z,8.30
2023-05-18T06:56:42.023Z,8.40
2023-05-18T06:59:11.203Z,8.10
2023-05-18T07:01:39.171Z,8.10
2023-05-18T07:04:07.775Z,8.20
2023-05-18T07:06:36.544Z,8.50
2023-05-18T07:09:05.308Z,8.50
2023-05-18T07:11:33.137Z,8.80
2023-05-18T07:14:00.992Z,8.80
2023-05-18T07:16:30.398Z,9.20
2023-05-18T07:18:58.825Z,9.30
2023-05-18T07:21:27.044Z,9.10
2023-05-18T07:23:54.882Z,9.10
2023-05-18T07:26:23.415Z,9.40
2023-05-18T07:28:51.888Z,9.70
2023-05-18T07:31:21.725Z,9.90
2023-05-18T07:33:51.086Z,10.00
2023-05-18T07:36:18.951Z,10.00
2023-05-18T07:38:47.501Z,9.80
2023-05-18T07:41:15.506Z,9.80
2023-05-18T07:43:43.353Z,10.00
2023-05-18T07:46:11.235Z,10.50
2023-05-18T07:48:40.790Z,10.50
2023-05-18T07:51:10.395Z,10.70
2023-05-18T07:53:38.264Z,11.00
2023-05-18T07:56:07.087Z,10.90
2023-05-18T07:58:35.199Z,10.60
2023-05-18T08:01:03.091Z,10.70
2023-05-18T08:03:31.193Z,11.00
2023-05-18T08:06:00.249Z,11.60
2023-05-18T08:08:29.869Z,11.70
2023-05-18T08:10:58.361Z,12.20
2023-05-18T08:13:26.657Z,12.20
2023-05-18T08:16:09.928Z,12.10
2023-05-18T08:18:39.753Z,11.30
2023-05-18T08:21:09.459Z,12.00
2023-05-18T08:23:39.249Z,12.30
2023-05-18T08:26:08.147Z,12.40
2023-05-18T08:28:36.243Z,12.00
2023-05-18T08:31:04.140Z,12.40
2023-05-18T08:33:33.257Z,12.30
2023-05-18T08:36:01.116Z,12.30
2023-05-18T08:38:28.948Z,12.20
2023-05-18T08:41:05.892Z,12.30
2023-05-18T08:43:37.577Z,12.90
2023-05-18T08:46:08.491Z,13.30
2023-05-18T08:48:38.613Z,13.40
2023-05-18T08:51:09.570Z,13.10
2023-05-18T08:53:39.990Z,13.30
2023-05-18T08:56:11.958Z,13.30
2023-05-18T08:58:47.140Z,13.50
2023-05-18T09:01:15.336Z,13.70
2023-05-18T09:03:43.542Z,14.00
2023-05-18T09:06:11.676Z,13.60
2023-05-18T09:08:41.284Z,13.80
2023-05-18T09:11:13.354Z,14.10
2023-05-18T09:13:41.473Z,14.80
2023-05-18T09:16:09.385Z,14.40
2023-05-18T09:18:37.602Z,14.00
2023-05-18T09:21:05.697Z,14.80
2023-05-18T09:23:34.277Z,14.20
2023-05-18T09:26:04.781Z,14.20
2023-05-18T09:28:37.070Z,14.70
2023-05-18T09:31:07.343Z,14.40
2023-05-18T09:33:38.134Z,14.30
2023-05-18T09:36:07.433Z,14.40
2023-05-18T09:38:38.260Z,14.80
2023-05-18T09:41:11.107Z,15.10
2023-05-18T09:43:40.808Z,15.40
2023-05-18T09:46:09.664Z,15.30
2023-05-18T09:48:38.252Z,14.00
2023-05-18T09:51:07.652Z,14.20
2023-05-18T09:53:37.365Z,14.60
2023-05-18T09:56:09.433Z,14.30
2023-05-18T09:58:37.373Z,13.60
2023-05-18T10:01:06.772Z,13.30
2023-05-18T10:03:37.836Z,13.80
2023-05-18T10:06:07.142Z,13.80
2023-05-18T10:08:35.571Z,13.80
2023-05-18T10:11:04.266Z,14.00
2023-05-18T10:13:33.582Z,13.80
2023-05-18T10:16:03.180Z,13.60
2023-05-18T10:18:33.606Z,14.10
2023-05-18T10:21:02.589Z,14.30
2023-05-18T10:23:33.346Z,14.60
2023-05-18T10:26:01.868Z,15.20
2023-05-18T10:28:33.906Z,15.70
2023-05-18T10:31:01.968Z,15.70
2023-05-18T10:33:31.894Z,15.90
2023-05-18T10:36:04.363Z,15.60
2023-05-18T10:38:34.107Z,15.70
2023-05-18T10:41:02.388Z,15.40
2023-05-18T10:43:30.259Z,15.20
2023-05-18T10:46:00.022Z,14.70
2023-05-18T10:48:30.164Z,14.50
2023-05-18T10:50:59.331Z,14.50
2023-05-18T10:53:30.041Z,14.30
2023-05-18T10:55:57.891Z,14.70
2023-05-18T10:58:27.815Z,14.90
2023-05-18T11:00:57.314Z,15.30
2023-05-18T11:03:27.033Z,15.60
2023-05-18T11:06:06.655Z,15.60
2023-05-18T11:08:42.897Z,15.40
2023-05-18T11:11:11.065Z,15.20
2023-05-18T11:13:45.606Z,15.40
2023-05-18T11:16:13.611Z,15.60
2023-05-18T11:18:45.255Z,15.70
2023-05-18T11:21:31.015Z,15.40
2023-05-18T11:24:24.666Z,15.50
2023-05-18T11:26:54.248Z,15.70
2023-05-18T11:29:24.363Z,15.70
2023-05-18T11:31:54.524Z,15.70
2023-05-18T11:34:41.001Z,15.70
2023-05-18T11:37:10.123Z,15.50
2023-05-18T11:39:51.779Z,15.50
2023-05-18T11:42:33.892Z,15.40
2023-05-18T11:45:07.664Z,15.50
2023-05-18T11:47:37.794Z,15.30
2023-05-18T11:50:08.589Z,15.60
2023-05-18T11:52:47.817Z,15.70
2023-05-18T11:55:19.082Z,16.20
2023-05-18T11:57:52.266Z,16.10
2023-05-18T12:00:21.611Z,15.70
2023-05-18T12:02:50.262Z,15.60
2023-05-18T12:05:18.742Z,15.80
2023-05-18T12:07:54.552Z,15.60
2023-05-18T12:10:24.147Z,15.80
2023-05-18T12:12:53.323Z,15.90
2023-05-18T12:15:23.914Z,15.40
2023-05-18T12:17:52.716Z,15.30
2023-05-18T12:20:21.746Z,15.60
2023-05-18T12:22:52.189Z,15.70
2023-05-18T12:25:21.582Z,15.90
2023-05-18T12:27:52.024Z,15.60
2023-05-18T12:30:21.701Z,15.60
2023-05-18T12:32:51.488Z,15.70
2023-05-18T12:35:24.331Z,15.40
2023-05-18T12:37:52.474Z,15.30
2023-05-18T12:40:21.107Z,15.00
2023-05-18T12:42:59.408Z,14.90
2023-05-18T12:45:29.194Z,15.10
2023-05-18T12:47:57.517Z,14.70
2023-05-18T12:50:26.581Z,14.90
2023-05-18T12:52:55.891Z,15.30
2023-05-18T12:55:25.098Z,15.20
2023-05-18T12:58:05.333Z,15.00
2023-05-18T13:00:34.047Z,14.70
2023-05-18T13:03:11.703Z,15.00
2023-05-18T13:05:42.471Z,15.20
2023-05-18T13:08:14.624Z,14.70
2023-05-18T13:10:45.162Z,14.60
2023-05-18T13:13:16.750Z,14.80
2023-05-18T13:15:45.526Z,14.90
2023-05-18T13:18:13.455Z,14.90
2023-05-18T13:20:43.476Z,14.60
2023-05-18T13:23:13.147Z,14.40
2023-05-18T13:25:41.520Z,14.50
2023-05-18T13:28:10.603Z,14.30
2023-05-18T13:30:40.972Z,14.40
2023-05-18T13:33:09.287Z,14.40
2023-05-18T13:35:37.711Z,14.40
2023-05-18T13:38:05.846Z,14.20
2023-05-18T13:40:33.894Z,14.10
2023-05-18T13:43:01.770Z,14.10
2023-05-18T13:45:30.905Z,14.50
2023-05-18T13:48:00.294Z,14.40
2023-05-18T13:50:28.237Z,14.30
2023-05-18T13:52:56.261Z,14.70
2023-05-18T13:55:24.353Z,14.70
2023-05-18T13:57:52.303Z,14.70
2023-05-18T14:00:21.446Z,14.70
2023-05-18T14:02:49.582Z,14.80
2023-05-18T14:05:19.184Z,14.90
2023-05-18T14:07:47.024Z,15.00
2023-05-18T14:10:14.988Z,14.60
2023-05-18T14:12:43.367Z,14.70
2023-05-18T14:15:13.735Z,14.70
2023-05-18T14:17:42.227Z,14.60
2023-05-18T14:20:11.153Z,14.60
2023-05-18T14:22:40.478Z,14.50
2023-05-18T14:25:08.936Z,14.40
2023-05-18T14:27:36.829Z,14.50
2023-05-18T14:30:06.192Z,14.70
2023-05-18T14:32:34.211Z,14.40
2023-05-18T14:35:02.150Z,14.50
2023-05-18T14:37:30.021Z,14.90
2023-05-18T14:39:59.286Z,14.80
2023-05-18T14:42:27.157Z,15.00
2023-05-18T14:44:54.996Z,14.80
2023-05-18T14:47:22.880Z,15.00
2023-05-18T14:49:50.736Z,15.20
2023-05-18T14:52:18.562Z,14.90
2023-05-18T14:54:47.782Z,14.70
2023-05-18T14:57:16.946Z,14.80
2023-05-18T14:59:44.807Z,14.50
2023-05-18T15:02:12.695Z,14.40
2023-05-18T15:04:40.527Z,14.50
2023-05-18T15:07:08.569Z,14.70
2023-05-18T15:09:36.443Z,14.70
2023-05-18T15:12:04.659Z,14.30
2023-05-18T15:14:33.888Z,14.00
2023-05-18T15:17:01.709Z,14.00
2023-05-18T15:19:30.375Z,14.10
2023-05-18T15:21:58.246Z,14.00
2023-05-18T15:24:26.262Z,13.80
2023-05-18T15:26:54.146Z,13.70
2023-05-18T15:29:22.018Z,13.60
2023-05-18T15:31:54.108Z,13.70
2023-05-18T15:34:22.573Z,14.00
2023-05-18T15:36:50.429Z,13.90
2023-05-18T15:39:18.289Z,14.00
2023-05-18T15:41:46.155Z,13.90
2023-05-18T15:44:13.949Z,14.10
2023-05-18T15:46:41.811Z,14.00
2023-05-18T15:49:11.037Z,13.90
2023-05-18T15:51:38.991Z,13.90
2023-05-18T15:54:06.839Z,13.90
2023-05-18T15:56:34.721Z,14.10
2023-05-18T15:59:02.589Z,13.80
2023-05-18T16:01:30.462Z,13.80
2023-05-18T16:03:58.285Z,13.90
2023-05-18T16:06:27.478Z,13.90
2023-05-18T16:08:55.936Z,14.00
2023-05-18T16:11:23.824Z,14.00
2023-05-18T16:13:56.744Z,14.20
2023-05-18T16:16:25.397Z,13.90
2023-05-18T16:18:53.668Z,13.80
2023-05-18T16:21:21.976Z,14.00
2023-05-18T16:23:51.127Z,14.10
2023-05-18T16:26:18.994Z,14.00
2023-05-18T16:28:46.873Z,13.90
2023-05-18T16:31:14.840Z,13.60
2023-05-18T16:33:42.686Z,13.40
2023-05-18T16:36:11.418Z,13.30
2023-05-18T16:38:39.294Z,13.30
2023-05-18T16:41:08.818Z,13.40
2023-05-18T16:43:36.703Z,13.40
2023-05-18T16:46:04.966Z,13.50
2023-05-18T16:48:32.809Z,13.40
2023-05-18T16:51:00.746Z,13.30
2023-05-18T16:53:28.568Z,13.30
2023-05-18T16:55:56.625Z,13.30
2023-05-18T16:58:26.616Z,13.30
2023-05-18T17:00:54.577Z,13.30
2023-05-18T17:03:22.483Z,13.30
2023-05-18T17:05:50.483Z,13.40
2023-05-18T17:08:18.322Z,13.40
2023-05-18T17:10:46.150Z,13.40
2023-05-18T17:13:13.972Z,13.30
2023-05-18T17:15:43.177Z,13.30
2023-05-18T17:18:11.049Z,13.30
2023-05-18T17:20:38.927Z,13.30
2023-05-18T17:23:06.775Z,13.20
2023-05-18T17:25:34.713Z,13.10
2023-05-18T17:28:02.515Z,13.10
2023-05-18T17:30:30.654Z,13.10
2023-05-18T17:32:59.961Z,13.00
2023-05-18T17:35:27.884Z,13.00
2023-05-18T17:37:55.858Z,13.00
2023-05-18T17:40:23.925Z,13.00
2023-05-18T17:42:51.752Z,13.00
2023-05-18T17:45:19.562Z,12.90
2023-05-18T17:47:47.466Z,12.90
2023-05-18T17:50:16.890Z,12.90
2023-05-18T17:52:45.083Z,12.80
2023-05-18T17:55:13.028Z,12.80
2023-05-18T17:57:45.164Z,12.70
2023-05-18T18:00:14.395Z,12.70
2023-05-18T18:02:42.465Z,12.70
2023-05-18T18:05:10.953Z,12.70
2023-05-18T18:07:40.183Z,12.60
2023-05-18T18:10:09.002Z,12.60
2023-05-18T18:12:36.873Z,12.50
2023-05-18T18:15:04.932Z,12.50
2023-05-18T18:17:33.429Z,12.50
2023-05-18T18:20:01.261Z,12.50
2023-05-18T18:22:29.080Z,12.50
2023-05-18T18:24:58.303Z,12.40
2023-05-18T18:27:26.201Z,12.40
2023-05-18T18:29:54.063Z,12.40
2023-05-18T18:32:21.924Z,12.40
2023-05-18T18:34:49.729Z,12.30
2023-05-18T18:37:18.298Z,12.30
2023-05-18T18:39:46.100Z,12.30
2023-05-18T18:42:18.649Z,12.30
2023-05-18T18:44:48.816Z,12.20
2023-05-18T18:47:16.624Z,12.20
2023-05-18T18:49:44.497Z,12.20
2023-05-18T18:52:13.869Z,12.20
2023-05-18T18:54:41.961Z,12.10
2023-05-18T18:57:11.933Z,12.10
2023-05-18T18:59:41.079Z,12.10
2023-05-18T19:02:09.029Z,12.10
2023-05-18T19:04:37.082Z,12.00
2023-05-18T19:07:05.944Z,12.00
2023-05-18T19:09:36.050Z,12.00
2023-05-18T19:12:04.004Z,12.00
2023-05-18T19:14:31.832Z,12.00
2023-05-18T19:17:01.039Z,11.90
2023-05-18T19:19:29.642Z,11.90
2023-05-18T19:21:57.522Z,11.90
2023-05-18T19:24:25.353Z,11.90
2023-05-18T19:26:53.231Z,11.80
2023-05-18T19:29:21.378Z,11.90
2023-05-18T19:31:49.275Z,11.80
2023-05-18T19:34:18.435Z,11.80
2023-05-18T19:36:46.304Z,11.80
2023-05-18T19:39:16.188Z,11.80
2023-05-18T19:41:44.099Z,11.80
2023-05-18T19:44:11.911Z,11.80
2023-05-18T19:46:39.937Z,11.80
2023-05-18T19:49:07.887Z,11.80
2023-05-18T19:51:37.061Z,11.80
2023-05-18T19:54:05.334Z,11.80
2023-05-18T19:56:33.250Z,11.70
2023-05-18T19:59:01.116Z,11.70
2023-05-18T20:01:29.020Z,11.70
2023-05-18T20:03:59.231Z,11.70
2023-05-18T20:06:28.005Z,11.70
2023-05-18T20:08:57.189Z,11.70
2023-05-18T20:11:25.051Z,11.70
2023-05-18T20:13:52.846Z,11.70
2023-05-18T20:16:20.692Z,11.60
2023-05-18T20:18:48.607Z,11.60
2023-05-18T20:21:18.508Z,11.60
2023-05-18T20:23:47.379Z,11.60
2023-05-18T20:26:16.957Z,11.60
2023-05-18T20:28:44.770Z,11.50
2023-05-18T20:31:15.704Z,11.50
2023-05-18T20:33:44.441Z,11.50
2023-05-18T20:36:14.169Z,11.50
2023-05-18T20:38:42.472Z,11.50
2023-05-18T20:41:10.321Z,11.50
2023-05-18T20:43:39.501Z,11.50
2023-05-18T20:46:08.176Z,11.50
2023-05-18T20:48:37.138Z,11.40
2023-05-18T20:51:05.344Z,11.40
2023-05-18T20:53:33.186Z,11.30
2023-05-18T20:56:01.493Z,11.30
2023-05-18T20:58:29.400Z,11.30
2023-05-18T21:00:58.556Z,11.30
2023-05-18T21:03:26.549Z,11.20
2023-05-18T21:05:54.628Z,11.30
2023-05-18T21:08:22.409Z,11.30
2023-05-18T21:10:50.189Z,11.30
2023-05-18T21:13:18.167Z,11.20
2023-05-18T21:15:46.050Z,11.20
2023-05-18T21:18:15.455Z,11.20
2023-05-18T21:20:43.632Z,11.20
2023-05-18T21:23:11.459Z,11.20
2023-05-18T21:25:39.315Z,11.20
2023-05-18T21:28:07.554Z,11.20
2023-05-18T21:30:35.439Z,11.20
2023-05-18T21:33:03.443Z,11.20
2023-05-18T21:35:33.045Z,11.10
2023-05-18T21:38:01.006Z,11.10
2023-05-18T21:40:28.836Z,11.10
2023-05-18T21:42:57.775Z,11.10
2023-05-18T21:45:26.212Z,11.10
2023-05-18T21:47:54.064Z,11.10
2023-05-18T21:50:21.979Z,11.10
2023-05-18T21:52:51.129Z,11.10
2023-05-18T21:55:19.000Z,11.10
2023-05-18T21:57:46.883Z,11.00
2023-05-18T22:00:17.298Z,11.00
2023-05-18T22:02:45.225Z,11.10
2023-05-18T22:05:13.132Z,11.00
2023-05-18T22:07:41.033Z,11.00
2023-05-18T22:10:11.213Z,11.00
2023-05-18T22:12:40.981Z,11.00
2023-05-18T22:15:10.441Z,11.00
2023-05-18T22:17:38.747Z,11.00
2023-05-18T22:20:09.552Z,10.90
2023-05-18T22:22:37.674Z,10.90
2023-05-18T22:25:06.394Z,10.90
2023-05-18T22:27:36.732Z,10.90
2023-05-18T22:30:06.162Z,10.90
2023-05-18T22:32:34.155Z,10.90
2023-05-18T22:35:02.643Z,10.90
2023-05-18T22:37:30.624Z,10.80
2023-05-18T22:39:58.409Z,10.80
2023-05-18T22:42:26.191Z,10.80
2023-05-18T22:44:55.365Z,10.80
2023-05-18T22:47:23.746Z,10.80
2023-05-18T22:49:51.818Z,10.90
2023-05-18T22:52:19.622Z,10.80
2023-05-18T22:54:47.796Z,10.80
2023-05-18T22:57:15.715Z,10.80
2023-05-18T22:59:43.513Z,10.80
2023-05-18T23:02:12.900Z,10.80
2023-05-18T23:04:40.770Z,10.90
2023-05-18T23:07:08.668Z,10.80
2023-05-18T23:09:38.355Z,10.80
2023-05-18T23:12:07.016Z,10.80
2023-05-18T23:14:35.059Z,10.80
2023-05-18T23:17:03.677Z,10.80
2023-05-18T23:19:34.064Z,10.80
2023-05-18T23:22:02.164Z,10.80
2023-05-18T23:24:30.052Z,10.80
2023-05-18T23:26:58.754Z,10.70
2023-05-18T23:29:26.601Z,10.80
2023-05-18T23:31:54.410Z,10.70
2023-05-18T23:34:23.460Z,10.70
2023-05-18T23:36:57.354Z,10.70
2023-05-18T23:39:27.064Z,10.70
2023-05-18T23:41:58.589Z,10.70
2023-05-18T23:44:27.024Z,10.70
2023-05-18T23:46:55.595Z,10.70
2023-05-18T23:49:23.821Z,10.60
2023-05-18T23:51:54.673Z,10.70
2023-05-18T23:54:22.939Z,10.60
2023-05-18T23:56:51.555Z,10.60
2023-05-18T23:59:19.713Z,10.60
